Time;durP1;ratioP1;P1;durP2;ratioP2;P2;SDS_P1;SDS_P2;PMS_P1;PMS_P2;Temp;Humidity;BMP_temperature;BMP_pressure;BME280_temperature;BME280_humidity;BME280_pressure;Samples;Min_cycle;Max_cycle;Signal;HPM_P1;HPM_P2
2022/05/06 00:00:24;;;;;;;5.97;4.72;;;19.40;55.80;;;;;;5132538;27;20356;-68
2022/05/06 00:02:51;;;;;;;7.53;5.20;;;19.40;55.80;;;;;;5113442;28;20029;-69
2022/05/06 00:05:17;;;;;;;7.97;5.00;;;19.40;55.90;;;;;;5132551;27;20027;-68
2022/05/06 00:07:43;;;;;;;9.77;5.18;;;19.30;55.90;;;;;;5129920;27;20092;-69
2022/05/06 00:10:10;;;;;;;7.65;5.40;;;19.30;56.10;;;;;;5132079;27;20019;-68
2022/05/06 00:12:55;;;;;;;6.70;4.72;;;19.20;56.30;;;;;;5112797;28;20027;-69
2022/05/06 00:15:21;;;;;;;10.00;4.95;;;19.20;56.60;;;;;;5131454;28;20019;-69
2022/05/06 00:17:46;;;;;;;8.98;5.40;;;19.30;56.40;;;;;;5130949;28;20034;-69
2022/05/06 00:20:12;;;;;;;8.85;5.28;;;19.20;56.60;;;;;;5132054;28;20106;-68
2022/05/06 00:22:37;;;;;;;9.25;5.60;;;19.10;56.80;;;;;;5112525;28;20646;-69
2022/05/06 00:25:03;;;;;;;9.38;5.85;;;19.10;56.80;;;;;;5131377;27;20033;-68
2022/05/06 00:27:29;;;;;;;8.98;5.35;;;19.10;56.90;;;;;;5132192;27;20016;-69
2022/05/06 00:29:55;;;;;;;12.93;4.80;;;19.10;57.10;;;;;;5112782;28;20049;-69
2022/05/06 00:32:21;;;;;;;10.73;5.70;;;19.00;57.20;;;;;;5132407;27;20015;-68
2022/05/06 00:34:46;;;;;;;7.43;4.78;;;19.00;57.30;;;;;;5135522;27;20083;-68
2022/05/06 00:37:12;;;;;;;6.90;5.50;;;19.00;57.50;;;;;;5136457;27;20026;-68
2022/05/06 00:39:38;;;;;;;7.97;4.95;;;19.00;57.50;;;;;;5117296;27;20186;-68
2022/05/06 00:42:04;;;;;;;8.75;5.20;;;19.00;57.50;;;;;;5117566;27;20093;-68
2022/05/06 00:44:29;;;;;;;6.32;5.32;;;19.00;57.60;;;;;;5136292;27;20043;-68
2022/05/06 00:46:58;;;;;;;8.15;4.90;;;19.00;57.70;;;;;;5135537;27;20083;-67
2022/05/06 00:49:24;;;;;;;5.90;5.22;;;18.90;57.80;;;;;;5136186;27;20029;-68
2022/05/06 00:51:53;;;;;;;8.52;5.55;;;18.90;57.80;;;;;;5135633;27;20038;-69
2022/05/06 00:57:06;;;;;;;8.07;5.72;;;18.90;57.90;;;;;;5135957;27;20042;-68
2022/05/06 00:59:32;;;;;;;6.97;5.50;;;18.90;57.90;;;;;;5135749;27;20379;-68
2022/05/06 01:01:59;;;;;;;10.13;6.20;;;18.90;58.00;;;;;;5135201;27;20464;-68
2022/05/06 01:04:24;;;;;;;9.65;5.70;;;18.80;58.20;;;;;;5135843;27;20030;-68
2022/05/06 01:06:50;;;;;;;8.73;5.55;;;18.80;58.30;;;;;;5135097;27;20023;-68
2022/05/06 01:09:18;;;;;;;7.93;5.20;;;18.70;58.40;;;;;;5135780;27;20019;-68
2022/05/06 01:11:44;;;;;;;7.28;5.30;;;18.80;58.40;;;;;;5135253;27;20035;-68
2022/05/06 01:14:10;;;;;;;8.88;5.00;;;18.80;58.30;;;;;;5117413;27;20387;-68
2022/05/06 01:16:36;;;;;;;7.38;5.28;;;18.80;58.40;;;;;;5135590;27;20031;-68
2022/05/06 01:19:03;;;;;;;10.25;5.93;;;18.80;58.40;;;;;;5134982;27;20076;-68
2022/05/06 01:21:34;;;;;;;7.13;5.90;;;18.80;58.40;;;;;;5135301;27;20023;-69
2022/05/06 01:24:01;;;;;;;9.65;5.35;;;18.80;58.50;;;;;;5135334;27;20023;-68
2022/05/06 01:26:53;;;;;;;9.55;5.63;;;18.80;58.60;;;;;;5135729;27;20023;-68
2022/05/06 01:29:22;;;;;;;7.65;5.82;;;18.70;59.10;;;;;;5135325;27;20072;-68
2022/05/06 01:31:50;;;;;;;12.65;6.45;;;18.60;59.20;;;;;;5134668;27;20064;-67
2022/05/06 01:34:17;;;;;;;9.82;6.82;;;18.60;59.40;;;;;;5134786;27;20107;-68
2022/05/06 01:36:46;;;;;;;9.52;5.95;;;18.60;59.40;;;;;;5134870;27;20023;-68
2022/05/06 01:39:15;;;;;;;8.43;5.80;;;18.60;59.40;;;;;;5116261;27;20027;-67
2022/05/06 01:41:43;;;;;;;9.15;6.57;;;18.70;59.60;;;;;;5135027;27;20429;-68
2022/05/06 01:44:12;;;;;;;8.77;6.28;;;18.60;59.50;;;;;;5133985;27;20035;-68
2022/05/06 01:46:38;;;;;;;11.35;6.28;;;18.60;59.60;;;;;;5134603;27;20016;-68
2022/05/06 01:49:04;;;;;;;8.68;7.18;;;18.60;59.80;;;;;;5115254;27;20044;-68
2022/05/06 01:51:32;;;;;;;9.10;6.90;;;18.60;60.10;;;;;;5134766;27;20019;-67
2022/05/06 01:53:58;;;;;;;9.15;6.35;;;18.60;60.20;;;;;;5115814;27;20027;-67
2022/05/06 01:56:24;;;;;;;8.00;7.00;;;18.50;60.30;;;;;;5135132;27;20051;-67
2022/05/06 01:58:50;;;;;;;8.82;7.00;;;18.50;60.40;;;;;;5134399;27;20058;-68
2022/05/06 02:01:15;;;;;;;10.45;7.47;;;18.50;60.60;;;;;;5116386;27;20505;-67
2022/05/06 02:06:26;;;;;;;9.02;7.35;;;18.50;60.70;;;;;;5134740;27;20030;-67
2022/05/06 02:08:52;;;;;;;9.65;7.13;;;18.50;60.80;;;;;;5115293;27;20023;-68
2022/05/06 02:11:18;;;;;;;9.85;7.55;;;18.50;60.70;;;;;;5134807;27;20096;-68
2022/05/06 02:13:45;;;;;;;12.73;7.22;;;18.50;60.80;;;;;;5133885;27;20106;-68
2022/05/06 02:16:11;;;;;;;7.72;6.72;;;18.50;60.90;;;;;;5116149;27;20019;-68
2022/05/06 02:18:36;;;;;;;8.30;4.82;;;18.50;60.80;;;;;;5134693;27;20388;-68
2022/05/06 02:21:02;;;;;;;6.57;5.30;;;18.50;60.60;;;;;;5133986;27;20234;-68
2022/05/06 02:23:28;;;;;;;8.93;5.20;;;18.40;60.60;;;;;;5116103;27;20019;-67
2022/05/06 02:25:54;;;;;;;7.10;4.63;;;18.30;60.70;;;;;;5133431;27;20103;-68
2022/05/06 02:28:20;;;;;;;7.85;4.82;;;18.30;60.80;;;;;;5134539;27;20038;-67
2022/05/06 02:33:31;;;;;;;5.32;4.45;;;18.20;61.00;;;;;;5134475;27;20068;-67
2022/05/06 02:35:58;;;;;;;5.97;4.75;;;18.10;61.10;;;;;;5115079;27;20023;-68
2022/05/06 02:38:25;;;;;;;5.80;4.90;;;18.10;61.20;;;;;;5115698;27;20023;-67
2022/05/06 02:40:51;;;;;;;7.57;4.85;;;18.10;61.40;;;;;;5133039;27;20023;-68
2022/05/06 02:43:17;;;;;;;8.63;6.35;;;18.10;61.50;;;;;;5133751;27;20043;-68
2022/05/06 02:45:43;;;;;;;10.43;7.00;;;18.10;61.90;;;;;;5134137;27;20019;-68
2022/05/06 02:48:09;;;;;;;9.25;6.97;;;18.10;62.10;;;;;;5133259;27;20037;-68
2022/05/06 02:50:36;;;;;;;8.10;6.30;;;18.10;62.30;;;;;;5115372;27;20019;-68
2022/05/06 02:53:03;;;;;;;15.77;7.05;;;18.20;62.20;;;;;;5133294;27;20023;-68
2022/05/06 02:55:29;;;;;;;13.10;7.47;;;18.20;62.30;;;;;;5115034;27;20023;-67
2022/05/06 02:57:54;;;;;;;13.25;6.32;;;18.20;62.50;;;;;;5132419;27;20087;-67
2022/05/06 03:00:20;;;;;;;10.25;8.27;;;18.20;62.10;;;;;;5133737;27;20024;-68
2022/05/06 03:02:46;;;;;;;12.27;8.20;;;18.20;62.30;;;;;;5133457;27;20102;-70
2022/05/06 03:05:12;;;;;;;10.05;8.60;;;18.20;62.80;;;;;;5132731;27;20039;-68
2022/05/06 03:07:39;;;;;;;10.98;8.43;;;18.20;63.00;;;;;;5133255;27;20072;-68
2022/05/06 03:10:05;;;;;;;11.15;7.93;;;18.10;63.40;;;;;;5114047;27;20023;-68
2022/05/06 03:12:31;;;;;;;9.55;7.57;;;18.10;63.40;;;;;;5133587;27;20023;-67
2022/05/06 03:15:04;;;;;;;14.93;9.60;;;18.10;62.90;;;;;;5132705;27;20046;-68
2022/05/06 03:17:33;;;;;;;11.40;8.97;;;18.10;63.00;;;;;;5133551;27;20094;-68
2022/05/06 03:19:59;;;;;;;15.07;9.48;;;18.20;63.20;;;;;;5132381;27;20027;-68
2022/05/06 03:22:25;;;;;;;13.23;9.18;;;18.10;63.80;;;;;;5114620;27;20034;-68
2022/05/06 03:24:51;;;;;;;11.35;9.18;;;18.10;63.80;;;;;;5132532;27;20460;-69
2022/05/06 03:30:04;;;;;;;9.68;8.77;;;18.00;64.70;;;;;;5132555;27;20140;-68
2022/05/06 03:32:31;;;;;;;10.57;9.48;;;18.00;64.30;;;;;;5114348;27;20499;-68
2022/05/06 03:34:57;;;;;;;10.02;9.00;;;18.00;64.50;;;;;;5132531;27;20024;-68
2022/05/06 03:37:23;;;;;;;15.68;9.65;;;17.90;64.50;;;;;;5114686;27;20048;-68
2022/05/06 03:39:49;;;;;;;11.00;9.88;;;18.00;64.60;;;;;;5114119;27;20027;-68
2022/05/06 03:42:14;;;;;;;13.05;9.57;;;18.00;64.60;;;;;;5132291;27;20068;-68
2022/05/06 03:44:40;;;;;;;11.93;9.55;;;18.00;64.70;;;;;;5132747;27;20047;-68
2022/05/06 03:47:06;;;;;;;10.77;9.68;;;17.90;64.70;;;;;;5131853;27;20023;-68
2022/05/06 03:49:32;;;;;;;14.48;9.63;;;17.90;64.70;;;;;;5097363;27;20023;-68
2022/05/06 03:51:59;;;;;;;10.98;9.38;;;18.00;64.70;;;;;;5131911;27;20054;-68
2022/05/06 03:54:26;;;;;;;11.18;8.85;;;17.90;64.90;;;;;;5132954;27;20465;-68
2022/05/06 03:56:52;;;;;;;10.63;9.50;;;18.00;64.80;;;;;;5132367;27;20019;-69
2022/05/06 03:59:17;;;;;;;12.02;9.63;;;18.00;64.80;;;;;;5132624;27;20379;-68
2022/05/06 04:01:43;;;;;;;10.35;8.93;;;18.00;64.70;;;;;;5132230;27;20109;-68
2022/05/06 04:04:09;;;;;;;11.25;8.45;;;18.00;64.60;;;;;;5131152;27;20384;-68
2022/05/06 04:06:34;;;;;;;13.85;8.50;;;18.00;64.70;;;;;;5132448;27;20015;-68
2022/05/06 04:09:00;;;;;;;10.38;9.23;;;18.00;64.70;;;;;;5112795;28;20019;-68
2022/05/06 04:11:26;;;;;;;11.68;8.88;;;18.00;64.80;;;;;;5132143;27;20076;-68
2022/05/06 04:13:51;;;;;;;10.90;9.10;;;18.00;64.70;;;;;;5132106;27;20023;-68
2022/05/06 04:16:17;;;;;;;10.77;8.88;;;18.00;64.80;;;;;;5132179;28;20019;-68
2022/05/06 04:18:43;;;;;;;9.55;8.13;;;18.10;64.80;;;;;;5132340;28;20102;-68
2022/05/06 04:23:52;;;;;;;;;;;18.00;64.80;;;;;;5132821;28;20034;-69
2022/05/06 04:26:18;;;;;;;12.60;8.70;;;18.10;65.30;;;;;;5132125;28;19903;-68
2022/05/06 04:28:44;;;;;;;10.70;9.00;;;18.10;64.70;;;;;;5132199;27;20387;-68
2022/05/06 04:31:10;;;;;;;15.57;9.23;;;18.20;64.50;;;;;;5113071;28;20026;-68
2022/05/06 04:33:40;;;;;;;14.07;9.57;;;18.20;64.40;;;;;;5132179;28;20042;-68
2022/05/06 04:36:06;;;;;;;12.25;9.00;;;18.20;64.50;;;;;;5112609;28;20031;-68
2022/05/06 04:38:32;;;;;;;11.95;8.63;;;18.20;64.50;;;;;;5132223;28;20045;-68
2022/05/06 04:40:59;;;;;;;16.33;9.25;;;18.20;64.30;;;;;;5131698;27;20019;-69
2022/05/06 04:43:25;;;;;;;18.20;9.50;;;18.20;64.20;;;;;;5113725;28;20043;-68
2022/05/06 04:45:52;;;;;;;18.17;9.23;;;18.20;64.20;;;;;;5113383;28;20050;-68
2022/05/06 04:48:18;;;;;;;20.30;8.88;;;18.20;64.30;;;;;;5131415;28;20030;-68
2022/05/06 04:50:45;;;;;;;12.35;8.68;;;18.30;64.40;;;;;;5131800;27;20034;-68
2022/05/06 04:53:11;;;;;;;17.50;8.93;;;18.30;64.20;;;;;;5131593;27;20020;-68
2022/05/06 04:55:48;;;;;;;11.60;8.15;;;18.40;64.10;;;;;;5131407;28;20028;-69
2022/05/06 04:58:16;;;;;;;9.45;7.78;;;18.40;64.00;;;;;;5114716;28;20122;-67
2022/05/06 05:00:42;;;;;;;14.35;9.40;;;18.50;63.80;;;;;;5132162;28;20047;-69
2022/05/06 05:03:08;;;;;;;12.30;8.80;;;18.50;63.60;;;;;;5131453;28;20024;-68
2022/05/06 05:05:33;;;;;;;11.00;8.23;;;18.60;63.40;;;;;;5112891;28;20020;-68
2022/05/06 05:08:00;;;;;;;13.82;8.85;;;18.60;63.20;;;;;;5095982;28;20058;-69
2022/05/06 05:10:26;;;;;;;9.88;7.30;;;18.70;63.10;;;;;;5113206;28;20479;-69
2022/05/06 05:12:51;;;;;;;12.07;7.40;;;18.70;62.60;;;;;;5132037;27;20023;-69
2022/05/06 05:15:18;;;;;;;10.50;7.30;;;18.70;62.00;;;;;;5130825;28;20019;-67
2022/05/06 05:17:47;;;;;;;24.63;7.53;;;18.70;61.50;;;;;;5132279;27;20023;-68
2022/05/06 05:20:14;;;;;;;19.75;6.88;;;18.60;61.30;;;;;;5133302;27;20493;-68
2022/05/06 05:22:40;;;;;;;18.02;6.93;;;18.50;61.40;;;;;;5116914;27;20100;-68
2022/05/06 05:25:07;;;;;;;15.40;7.00;;;18.50;61.40;;;;;;5134566;27;20034;-69
2022/05/06 05:27:34;;;;;;;23.67;6.72;;;18.50;61.50;;;;;;5135920;27;20027;-68
2022/05/06 05:30:01;;;;;;;13.88;6.85;;;18.50;61.60;;;;;;5134903;27;20068;-70
2022/05/06 05:32:27;;;;;;;13.15;7.28;;;18.50;61.50;;;;;;5134789;27;20098;-69
2022/05/06 05:34:53;;;;;;;16.00;7.18;;;18.50;61.40;;;;;;5134820;27;20046;-67
2022/05/06 05:37:18;;;;;;;17.00;7.68;;;18.60;61.40;;;;;;5115541;27;20590;-68
2022/05/06 05:39:45;;;;;;;13.00;7.05;;;18.60;61.20;;;;;;5116152;27;20027;-67
2022/05/06 05:42:11;;;;;;;10.10;7.03;;;18.70;61.00;;;;;;5115679;27;20026;-67
2022/05/06 05:50:06;;;;;;;17.50;7.50;;;18.80;60.60;;;;;;5093253;28;20043;-67
2022/05/06 05:52:33;;;;;;;13.82;7.78;;;18.80;60.70;;;;;;5093160;28;20020;-67
2022/05/06 05:54:59;;;;;;;18.65;8.23;;;18.80;60.70;;;;;;5093362;28;20465;-67
2022/05/06 05:57:25;;;;;;;19.42;8.98;;;18.80;60.70;;;;;;5091719;28;20036;-67
2022/05/06 05:59:50;;;;;;;22.65;8.43;;;18.80;60.60;;;;;;5093074;28;20085;-67
2022/05/06 06:02:17;;;;;;;24.77;8.93;;;18.80;60.70;;;;;;5092908;28;20093;-68
2022/05/06 06:04:44;;;;;;;23.90;8.68;;;18.90;60.60;;;;;;5093202;28;20032;-67
2022/05/06 06:07:10;;;;;;;14.60;7.75;;;18.90;60.40;;;;;;5092259;28;20012;-68
2022/05/06 06:09:36;;;;;;;17.73;7.78;;;18.90;60.30;;;;;;5093323;28;20077;-68
2022/05/06 06:12:20;;;;;;;17.73;7.28;;;18.80;60.40;;;;;;5093316;28;20028;-69
2022/05/06 06:14:46;;;;;;;15.13;8.15;;;18.70;60.70;;;;;;5091828;28;20028;-68
2022/05/06 06:17:11;;;;;;;9.27;6.70;;;18.70;60.90;;;;;;5092764;28;20065;-68
2022/05/06 06:19:37;;;;;;;15.95;7.53;;;18.70;61.00;;;;;;5091526;28;20039;-68
2022/05/06 06:22:03;;;;;;;15.35;7.80;;;18.80;61.00;;;;;;5092748;28;20035;-69
2022/05/06 06:24:30;;;;;;;11.82;7.68;;;18.90;60.70;;;;;;5091132;28;20070;-68
2022/05/06 06:26:55;;;;;;;20.10;8.32;;;19.00;60.40;;;;;;5091357;28;20027;-68
2022/05/06 06:29:21;;;;;;;18.95;8.50;;;19.10;60.20;;;;;;5092554;28;20025;-69
2022/05/06 06:31:47;;;;;;;26.50;8.60;;;19.20;60.00;;;;;;5091012;28;20028;-69
2022/05/06 06:34:13;;;;;;;14.88;7.68;;;19.30;59.80;;;;;;5091965;28;20064;-69
2022/05/06 06:36:38;;;;;;;36.13;9.90;;;19.30;59.50;;;;;;5091396;28;20496;-68
2022/05/06 06:39:04;;;;;;;36.10;9.52;;;19.40;59.50;;;;;;5091879;28;20036;-70
2022/05/06 06:41:30;;;;;;;21.92;8.88;;;19.50;59.30;;;;;;5092367;28;20027;-69
2022/05/06 06:43:56;;;;;;;17.95;9.25;;;19.50;59.40;;;;;;5090954;28;20044;-70
2022/05/06 06:46:22;;;;;;;26.58;9.88;;;19.60;59.30;;;;;;5091838;28;20051;-68
2022/05/06 06:48:48;;;;;;;16.75;9.43;;;19.70;59.40;;;;;;5092469;28;20024;-68
2022/05/06 06:51:14;;;;;;;22.27;10.30;;;19.70;59.60;;;;;;5091091;28;20516;-68
2022/05/06 06:53:39;;;;;;;15.07;9.15;;;19.80;59.70;;;;;;5092252;28;20023;-68
2022/05/06 06:56:05;;;;;;;22.73;9.50;;;19.80;59.50;;;;;;5092307;28;20427;-67
2022/05/06 06:58:31;;;;;;;18.77;9.15;;;19.80;59.30;;;;;;5091997;28;20024;-68
2022/05/06 07:00:57;;;;;;;12.60;9.00;;;19.80;59.60;;;;;;5091840;28;20279;-67
2022/05/06 07:03:23;;;;;;;16.80;9.80;;;19.90;59.40;;;;;;5091485;28;20421;-67
2022/05/06 07:14:02;;;;;;;20.17;11.60;;;19.90;59.30;;;;;;5092735;28;20035;-69
2022/05/06 07:16:28;;;;;;;15.02;10.13;;;19.90;59.10;;;;;;5086741;28;20115;-69
2022/05/06 07:18:54;;;;;;;13.57;9.32;;;19.90;59.20;;;;;;5087982;28;20100;-71
2022/05/06 07:21:20;;;;;;;12.27;9.73;;;20.00;59.00;;;;;;5089482;28;20051;-71
2022/05/06 07:23:46;;;;;;;14.38;9.77;;;20.10;58.90;;;;;;5090537;28;20020;-71
2022/05/06 07:26:13;;;;;;;15.65;9.40;;;20.10;58.90;;;;;;5089362;28;20026;-70
2022/05/06 07:28:40;;;;;;;12.57;10.35;;;20.20;58.50;;;;;;5089786;28;20043;-70
2022/05/06 07:31:06;;;;;;;15.30;9.77;;;20.40;58.40;;;;;;5090479;28;20338;-69
2022/05/06 07:33:31;;;;;;;14.25;10.60;;;20.50;57.90;;;;;;5089319;28;20397;-70
2022/05/06 07:35:57;;;;;;;13.90;9.07;;;20.60;57.80;;;;;;5091008;28;20099;-70
2022/05/06 07:38:23;;;;;;;17.42;9.40;;;20.70;57.50;;;;;;5089497;28;20473;-71
2022/05/06 07:40:49;;;;;;;14.95;9.40;;;21.00;57.00;;;;;;5090913;28;20395;-70
2022/05/06 07:43:15;;;;;;;13.82;9.70;;;21.10;56.30;;;;;;5106260;27;20420;-69
2022/05/06 07:45:41;;;;;;;15.68;9.50;;;21.10;56.00;;;;;;5130846;27;20019;-71
2022/05/06 07:48:09;;;;;;;16.45;9.88;;;21.10;55.70;;;;;;5113876;27;20039;-71
2022/05/06 07:50:37;;;;;;;12.07;8.43;;;21.10;55.70;;;;;;5132190;27;20022;-70
2022/05/06 07:53:04;;;;;;;12.50;8.48;;;21.30;55.60;;;;;;5113582;27;20046;-70
2022/05/06 07:55:35;;;;;;;16.02;9.35;;;21.60;55.20;;;;;;5113120;27;20243;-69
2022/05/06 07:58:01;;;;;;;17.95;10.20;;;22.00;53.90;;;;;;5131390;27;20107;-71
2022/05/06 08:00:27;;;;;;;29.30;11.27;;;22.30;53.20;;;;;;5112588;27;20051;-70
2022/05/06 08:05:40;;;;;;;17.50;9.77;;;22.60;52.20;;;;;;5131824;27;20079;-72
2022/05/06 08:08:07;;;;;;;18.10;9.98;;;22.40;52.40;;;;;;5127866;27;20019;-70
2022/05/06 08:10:32;;;;;;;36.70;10.95;;;22.50;52.50;;;;;;5130102;27;20576;-73
2022/05/06 08:12:58;;;;;;;23.88;10.93;;;22.60;51.50;;;;;;5131349;27;20034;-71
2022/05/06 08:15:24;;;;;;;39.33;12.48;;;22.50;51.70;;;;;;5130177;28;20046;-70
2022/05/06 08:17:51;;;;;;;18.50;10.20;;;22.50;51.90;;;;;;5095933;28;20031;-71
2022/05/06 08:20:16;;;;;;;36.65;11.32;;;22.30;51.80;;;;;;5112710;28;20110;-71
2022/05/06 08:22:42;;;;;;;24.35;9.75;;;22.30;52.20;;;;;;5131719;28;20098;-71
2022/05/06 08:25:08;;;;;;;20.85;9.88;;;22.40;51.90;;;;;;5113033;28;20564;-71
2022/05/06 08:27:38;;;;;;;23.73;10.02;;;22.50;51.80;;;;;;5112478;28;20015;-71
2022/05/06 08:30:07;;;;;;;23.02;10.43;;;22.60;51.60;;;;;;5130471;28;20518;-70
2022/05/06 08:32:33;;;;;;;28.42;10.65;;;22.50;51.90;;;;;;5130924;28;20015;-71
2022/05/06 08:34:59;;;;;;;32.17;10.68;;;22.50;52.20;;;;;;5131978;27;20396;-70
2022/05/06 08:37:25;;;;;;;31.20;9.75;;;22.50;52.20;;;;;;5130472;28;20031;-71
2022/05/06 08:39:51;;;;;;;20.25;9.50;;;22.60;52.10;;;;;;5131174;28;20019;-71
2022/05/06 08:42:19;;;;;;;19.50;9.52;;;23.20;51.10;;;;;;5130752;27;20023;-68
2022/05/06 08:53:05;;;;;;;19.00;8.88;;;25.60;46.40;;;;;;5132288;28;20033;-69
2022/05/06 08:55:32;;;;;;;16.02;9.68;;;25.80;45.50;;;;;;5134301;27;20050;-68
2022/05/06 08:57:58;;;;;;;15.98;8.25;;;25.90;45.60;;;;;;5117149;27;20424;-69
2022/05/06 09:00:28;;;;;;;19.75;9.15;;;26.30;45.20;;;;;;5134907;27;20054;-69
2022/05/06 09:02:54;;;;;;;15.07;9.40;;;26.40;44.50;;;;;;5134797;27;20083;-71
2022/05/06 09:05:21;;;;;;;14.18;8.07;;;26.30;44.30;;;;;;5115741;27;20114;-69
2022/05/06 09:08:03;;;;;;;16.58;8.55;;;26.20;44.30;;;;;;5135385;27;20015;-69
2022/05/06 09:10:29;;;;;;;19.98;9.30;;;26.00;44.20;;;;;;5134825;27;20023;-69
2022/05/06 09:13:00;;;;;;;12.90;8.27;;;25.70;44.60;;;;;;5135417;27;20027;-70
2022/05/06 09:18:17;;;;;;;13.60;9.18;;;25.50;44.60;;;;;;5135371;27;20136;-70
2022/05/06 09:20:43;;;;;;;21.85;8.40;;;25.30;44.50;;;;;;5134210;27;20026;-69
2022/05/06 09:23:27;;;;;;;15.00;8.30;;;25.00;44.20;;;;;;5115878;27;20031;-71
2022/05/06 09:25:54;;;;;;;19.70;10.00;;;24.60;44.90;;;;;;5133871;27;20476;-69
2022/05/06 09:28:24;;;;;;;21.92;9.45;;;24.20;46.10;;;;;;5134023;27;20019;-69
2022/05/06 09:31:04;;;;;;;13.52;8.30;;;24.00;47.20;;;;;;5115119;27;20087;-69
2022/05/06 09:33:32;;;;;;;20.05;8.77;;;24.20;47.40;;;;;;5133488;27;20022;-70
2022/05/06 09:35:58;;;;;;;19.33;8.98;;;24.30;47.40;;;;;;5134336;27;20333;-72
2022/05/06 09:38:29;;;;;;;19.15;9.38;;;24.50;47.50;;;;;;5134022;27;20297;-72
2022/05/06 09:40:56;;;;;;;14.75;9.43;;;24.60;47.50;;;;;;5134167;27;20026;-71
2022/05/06 09:43:26;;;;;;;20.45;10.88;;;24.60;47.70;;;;;;5133368;27;20081;-71
2022/05/06 09:45:51;;;;;;;17.08;10.90;;;24.80;47.60;;;;;;5114202;27;20054;-71
2022/05/06 09:48:17;;;;;;;18.35;9.02;;;24.80;46.90;;;;;;5112976;27;20057;-70
2022/05/06 09:50:45;;;;;;;14.10;8.93;;;24.80;46.80;;;;;;5133746;27;20050;-70
2022/05/06 09:53:13;;;;;;;14.82;9.30;;;25.00;46.40;;;;;;5133849;27;20106;-71
2022/05/06 09:55:42;;;;;;;13.95;8.40;;;25.20;46.00;;;;;;5132031;27;20541;-70
2022/05/06 09:58:08;;;;;;;17.50;11.52;;;25.50;46.00;;;;;;5133195;27;20468;-71
2022/05/06 10:00:35;;;;;;;14.65;10.10;;;25.60;44.60;;;;;;5133056;27;20046;-71
2022/05/06 10:03:01;;;;;;;15.70;8.95;;;25.40;44.70;;;;;;5133280;27;20020;-71
2022/05/06 10:05:28;;;;;;;14.77;11.65;;;25.60;44.90;;;;;;5112305;28;20108;-70
2022/05/06 10:08:14;;;;;;;18.77;10.55;;;25.60;44.90;;;;;;5133106;27;20443;-71
2022/05/06 10:10:55;;;;;;;17.38;10.25;;;25.60;44.50;;;;;;5113940;27;20015;-71
2022/05/06 10:13:22;;;;;;;19.02;9.32;;;25.70;44.60;;;;;;5116839;27;20071;-69
2022/05/06 10:15:49;;;;;;;16.17;9.48;;;25.70;45.00;;;;;;5133093;27;20533;-71
2022/05/06 10:18:31;;;;;;;13.18;10.10;;;25.80;44.90;;;;;;5133231;27;20019;-70
2022/05/06 10:21:00;;;;;;;16.13;10.80;;;25.70;44.70;;;;;;5132860;27;20486;-71
2022/05/06 10:23:50;;;;;;;14.60;11.38;;;25.60;45.00;;;;;;5132707;27;20030;-69
2022/05/06 10:26:37;;;;;;;18.27;13.43;;;25.60;45.00;;;;;;5114726;27;20024;-70
2022/05/06 10:34:36;;;;;;;13.57;8.05;;;26.00;44.20;;;;;;5131997;27;20042;-70
2022/05/06 10:37:13;;;;;;;10.52;7.97;;;26.00;43.20;;;;;;5132990;27;20023;-70
2022/05/06 10:39:39;;;;;;;19.23;13.43;;;25.90;42.80;;;;;;5132414;27;20034;-71
2022/05/06 10:42:06;;;;;;;20.35;14.52;;;25.70;43.10;;;;;;5114378;27;20030;-71
2022/05/06 10:44:49;;;;;;;12.40;9.52;;;25.50;43.70;;;;;;5113709;27;20189;-70
2022/05/06 10:47:15;;;;;;;23.20;10.65;;;25.50;43.60;;;;;;5132476;27;20023;-72
2022/05/06 10:49:46;;;;;;;11.60;9.85;;;25.30;43.80;;;;;;5132576;27;20488;-70
2022/05/06 10:54:47;;;;;;;52.38;40.67;;;25.30;43.60;;;;;;5132551;27;20027;-71
2022/05/06 10:57:17;;;;;;;25.20;15.18;;;25.00;44.00;;;;;;5113781;27;20038;-70
2022/05/06 10:59:58;;;;;;;39.38;26.65;;;24.80;44.60;;;;;;5131442;27;20026;-71
2022/05/06 11:02:28;;;;;;;13.35;9.63;;;24.80;44.70;;;;;;5113453;27;20095;-70
2022/05/06 11:04:59;;;;;;;14.90;9.80;;;24.80;44.70;;;;;;5114188;27;20038;-72
2022/05/06 11:07:27;;;;;;;19.80;9.73;;;24.90;44.80;;;;;;5131640;27;20023;-71
2022/05/06 11:09:53;;;;;;;18.63;9.23;;;25.00;45.20;;;;;;5097217;27;20027;-70
2022/05/06 11:12:48;;;;;;;15.63;9.30;;;24.90;45.20;;;;;;5114230;27;20019;-70
2022/05/06 11:15:18;;;;;;;22.92;10.95;;;25.00;44.90;;;;;;5132632;27;20464;-73
2022/05/06 11:17:45;;;;;;;13.27;10.43;;;25.00;45.20;;;;;;5112425;27;20033;-71
2022/05/06 11:20:26;;;;;;;22.42;10.52;;;25.20;44.70;;;;;;5113322;27;20035;-71
2022/05/06 11:23:00;;;;;;;28.30;17.67;;;25.20;44.50;;;;;;5132240;27;20027;-69
2022/05/06 11:25:28;;;;;;;23.38;12.55;;;25.00;44.50;;;;;;5131693;27;20023;-70
2022/05/06 11:27:56;;;;;;;15.32;10.25;;;24.70;44.80;;;;;;5131941;27;20102;-69
2022/05/06 11:30:23;;;;;;;19.83;11.88;;;24.80;44.70;;;;;;5132145;27;20024;-70
2022/05/06 11:32:54;;;;;;;21.40;10.10;;;24.90;44.30;;;;;;5131514;27;20084;-69
2022/05/06 11:35:26;;;;;;;15.27;11.50;;;24.70;43.90;;;;;;5114185;27;20023;-70
2022/05/06 11:37:52;;;;;;;18.02;10.95;;;24.50;44.00;;;;;;5132126;27;20027;-71
2022/05/06 11:40:32;;;;;;;23.98;11.70;;;24.20;44.60;;;;;;5132355;27;20030;-71
2022/05/06 11:42:59;;;;;;;16.48;12.13;;;24.00;45.20;;;;;;5104423;28;20191;-70
2022/05/06 11:48:11;;;;;;;15.98;11.52;;;23.80;45.80;;;;;;5091165;28;20039;-70
2022/05/06 11:50:39;;;;;;;15.50;9.38;;;23.70;46.20;;;;;;5088969;28;20024;-69
2022/05/06 11:53:10;;;;;;;15.38;10.43;;;23.60;47.00;;;;;;5090613;28;20055;-70
2022/05/06 11:55:38;;;;;;;21.75;12.68;;;23.40;47.20;;;;;;5089906;28;20020;-71
2022/05/06 11:58:09;;;;;;;20.08;12.07;;;23.20;48.10;;;;;;5090845;28;20053;-71
2022/05/06 12:00:35;;;;;;;15.30;12.48;;;23.20;49.30;;;;;;5090472;28;20038;-70
2022/05/06 12:03:12;;;;;;;20.20;13.00;;;23.20;49.80;;;;;;5089342;28;20454;-71
2022/05/06 12:05:39;;;;;;;18.83;12.57;;;23.10;50.50;;;;;;5089047;28;20122;-71
2022/05/06 12:08:07;;;;;;;24.10;17.48;;;23.20;50.90;;;;;;5091147;28;20058;-70
2022/05/06 12:10:37;;;;;;;17.65;12.85;;;23.10;51.30;;;;;;5088132;28;20070;-70
2022/05/06 12:13:06;;;;;;;17.77;12.88;;;22.90;51.90;;;;;;5089476;28;20141;-71
2022/05/06 12:15:41;;;;;;;19.90;12.20;;;22.90;52.10;;;;;;5088690;28;20486;-69
2022/05/06 12:18:11;;;;;;;16.92;11.95;;;23.00;51.90;;;;;;5088720;28;20500;-70
2022/05/06 12:20:39;;;;;;;19.52;12.27;;;23.00;52.40;;;;;;5089641;28;20142;-71
2022/05/06 12:23:07;;;;;;;21.40;14.25;;;23.10;52.30;;;;;;5090516;28;20021;-69
2022/05/06 12:25:35;;;;;;;20.55;14.35;;;23.20;52.00;;;;;;5088501;28;20104;-71
2022/05/06 12:28:20;;;;;;;26.35;17.48;;;23.10;52.00;;;;;;5089619;28;20024;-70
2022/05/06 12:30:54;;;;;;;21.40;12.77;;;23.10;52.70;;;;;;5092819;28;20044;-69
2022/05/06 12:33:19;;;;;;;21.13;18.92;;;23.20;52.60;;;;;;5093430;28;20024;-70
2022/05/06 12:35:55;;;;;;;15.65;13.55;;;23.20;52.40;;;;;;5093806;28;20028;-70
2022/05/06 12:38:21;;;;;;;18.30;15.07;;;23.10;54.00;;;;;;5094394;28;20048;-70
2022/05/06 12:40:49;;;;;;;16.92;13.45;;;23.10;53.30;;;;;;5092268;28;20032;-70
2022/05/06 12:43:15;;;;;;;17.40;15.30;;;23.20;53.60;;;;;;5104380;27;20107;-70
2022/05/06 12:45:55;;;;;;;19.17;14.57;;;23.10;53.50;;;;;;5116081;27;20414;-69
2022/05/06 12:51:10;;;;;;;23.63;16.42;;;22.90;53.90;;;;;;5134837;27;20045;-71
2022/05/06 12:53:37;;;;;;;26.85;15.48;;;22.90;54.50;;;;;;5134118;27;20051;-71
2022/05/06 12:56:03;;;;;;;22.98;15.98;;;22.70;54.60;;;;;;5135271;27;20038;-70
2022/05/06 12:58:29;;;;;;;18.60;16.10;;;22.80;54.70;;;;;;5135125;27;20023;-70
2022/05/06 13:01:00;;;;;;;24.25;17.38;;;22.80;54.70;;;;;;5134717;27;20631;-70
2022/05/06 13:03:27;;;;;;;28.40;18.98;;;22.80;54.90;;;;;;5116074;27;20019;-70
2022/05/06 13:05:53;;;;;;;28.50;17.55;;;22.80;54.80;;;;;;5133947;27;20416;-70
2022/05/06 13:08:20;;;;;;;26.52;16.67;;;22.90;55.00;;;;;;5116150;27;20375;-70
2022/05/06 13:10:45;;;;;;;24.60;19.35;;;22.80;54.80;;;;;;5115018;27;20043;-70
2022/05/06 13:13:11;;;;;;;19.25;17.23;;;22.80;55.30;;;;;;5134298;27;20019;-71
2022/05/06 13:15:37;;;;;;;23.48;17.05;;;22.80;55.60;;;;;;5134280;27;20034;-69
2022/05/06 13:18:03;;;;;;;17.05;15.20;;;22.80;56.20;;;;;;5134479;27;20019;-72
2022/05/06 13:20:29;;;;;;;15.13;12.48;;;22.90;55.40;;;;;;5134505;27;20031;-71
2022/05/06 13:22:55;;;;;;;15.13;13.52;;;22.90;54.70;;;;;;5134215;27;20050;-69
2022/05/06 13:25:21;;;;;;;15.45;13.70;;;23.00;54.30;;;;;;5134715;27;20114;-70
2022/05/06 13:27:49;;;;;;;15.55;13.00;;;23.10;54.80;;;;;;5133745;27;20030;-70
2022/05/06 13:30:14;;;;;;;20.30;17.33;;;23.00;54.50;;;;;;5134511;27;20426;-71
2022/05/06 13:32:40;;;;;;;22.95;15.57;;;22.90;54.60;;;;;;5133327;27;20031;-70